This is the latest recevied weather packets stored in our database for station/object GW1480. If no packets are shown the sender has not sent any weather packets the latest 10 day(s).
| Time | Temp. | Humidity | Pressure | Rain* | Wind** | Luminosity | Snow |
|---|---|---|---|---|---|---|---|
| 1777536207 | 9.44° C | 98% | 1014.9 hPa | 0 mm | - | - | - |
| 1777534412 | 9.44° C | 98% | 1014.9 hPa | 0 mm | - | - | - |
| 1777531177 | 9.44° C | 98% | 1014.9 hPa | 0 mm | - | - | - |
| 1777529709 | 10° C | 98% | 1014.9 hPa | 0 mm | - | - | - |
| 1777527575 | 10.56° C | 98% | 1015.2 hPa | 0 mm | - | - | - |
| 1777525066 | 11.11° C | 98% | 1014.5 hPa | 0 mm | - | - | - |
| 1777523968 | 11.11° C | 98% | 1014.9 hPa | 0 mm | - | - | - |
| 1777522526 | 11.67° C | 98% | 1014.5 hPa | 0 mm | - | - | - |
| 1777522182 | 11.67° C | 98% | 1014.5 hPa | 0 mm | - | - | - |
| 1777521107 | 12.22° C | 98% | 1014.9 hPa | 22.61 mm | - | - | - |
| 1777518929 | 12.22° C | 98% | 1014.5 hPa | 22.61 mm | - | - | - |
| 1777517477 | 11.67° C | 98% | 1014.5 hPa | 22.61 mm | - | - | - |
| 1777515689 | 11.67° C | 98% | 1014.5 hPa | 22.61 mm | - | - | - |
| 1777515353 | 11.67° C | 98% | 1014.5 hPa | 22.61 mm | - | - | - |
| 1777514958 | 11.67° C | 98% | 1014.5 hPa | 22.61 mm | - | - | - |
| 1777509942 | 13.33° C | 97% | 1014.5 hPa | 22.61 mm | - | - | - |
| 1777509205 | 13.89° C | 97% | 1014.2 hPa | 22.61 mm | - | - | - |
| 1777508855 | 14.44° C | 97% | 1014.2 hPa | 22.61 mm | - | - | - |
| 1777500222 | 17.78° C | 93% | 1011.8 hPa | 22.61 mm | - | - | - |
| 1777498754 | 17.78° C | 96% | 1011.5 hPa | 22.61 mm | - | - | - |
| 1777498048 | 17.78° C | 96% | 1011.1 hPa | 22.61 mm | - | - | - |
| 1777497705 | 17.78° C | 96% | 1011.1 hPa | 22.61 mm | - | - | - |
| 1777496959 | 17.78° C | 96% | 1010.8 hPa | 22.61 mm | - | - | - |
| 1777495884 | 18.33° C | 97% | 1010.4 hPa | 22.1 mm | - | - | - |
| 1777495513 | 18.89° C | 96% | 1010.1 hPa | 22.1 mm | - | - | - |
* Rain since midnight (hover to see other rain measurements)
** Current wind speed in m/s (hover to see current wind gust speed)